createdAt,value
2018-08-10T00:00:46.021Z,99455.30
2018-08-10T00:03:15.618Z,99454.62
2018-08-10T00:05:44.447Z,99458.83
2018-08-10T00:08:13.736Z,99459.64
2018-08-10T00:10:42.893Z,99466.03
2018-08-10T00:13:12.511Z,99464.70
2018-08-10T00:15:43.525Z,99476.59
2018-08-10T00:18:12.867Z,99473.59
2018-08-10T00:20:42.451Z,99475.58
2018-08-10T00:23:12.543Z,99484.63
2018-08-10T00:25:42.174Z,99491.31
2018-08-10T00:28:11.977Z,99490.63
2018-08-10T00:30:42.176Z,99509.56
2018-08-10T00:33:12.681Z,99513.75
2018-08-10T00:35:42.968Z,99514.38
2018-08-10T00:38:12.792Z,99515.89
2018-08-10T00:40:42.158Z,99516.72
2018-08-10T00:43:12.026Z,99527.27
2018-08-10T00:45:41.972Z,99525.11
2018-08-10T00:48:11.126Z,99531.25
2018-08-10T00:50:40.871Z,99536.80
2018-08-10T00:53:10.547Z,99538.66
2018-08-10T00:55:40.460Z,99556.55
2018-08-10T00:58:10.606Z,99551.05
2018-08-10T01:00:40.419Z,99560.73
2018-08-10T01:03:09.474Z,99560.38
2018-08-10T01:05:39.795Z,99567.02
2018-08-10T01:08:10.937Z,99561.36
2018-08-10T01:10:41.780Z,99568.72
2018-08-10T01:13:12.311Z,99566.19
2018-08-10T01:15:42.524Z,99503.09
2018-08-10T01:18:13.845Z,99576.06
2018-08-10T01:20:42.666Z,99571.53
2018-08-10T01:23:12.388Z,99578.55
2018-08-10T01:25:42.822Z,99575.06
2018-08-10T01:28:12.601Z,99587.75
2018-08-10T01:30:41.737Z,99591.70
2018-08-10T01:33:11.648Z,99594.50
2018-08-10T01:35:40.655Z,99599.48
2018-08-10T01:38:09.361Z,99609.56
2018-08-10T01:40:38.357Z,99602.30
2018-08-10T01:43:07.279Z,99606.34
2018-08-10T01:45:36.682Z,99603.00
2018-08-10T01:48:05.575Z,99604.33
2018-08-10T01:50:34.433Z,99599.86
2018-08-10T01:53:03.336Z,99604.06
2018-08-10T01:55:32.249Z,99612.52
2018-08-10T01:58:01.068Z,99615.98
2018-08-10T02:00:29.683Z,99613.61
2018-08-10T02:02:58.919Z,99616.51
2018-08-10T02:05:27.489Z,99626.26
2018-08-10T02:07:56.095Z,99624.56
2018-08-10T02:10:25.728Z,99621.48
2018-08-10T02:12:56.699Z,99622.91
2018-08-10T02:15:25.291Z,99617.41
2018-08-10T02:17:54.080Z,99622.78
2018-08-10T02:20:24.281Z,99624.45
2018-08-10T02:22:53.071Z,99626.06
2018-08-10T02:25:22.917Z,99629.81
2018-08-10T02:27:52.284Z,99625.95
2018-08-10T02:30:22.519Z,99620.34
2018-08-10T02:32:51.759Z,99627.92
2018-08-10T02:35:21.369Z,99636.27
2018-08-10T02:37:50.065Z,99634.83
2018-08-10T02:40:20.586Z,99629.66
2018-08-10T02:42:49.857Z,99630.05
2018-08-10T02:45:18.495Z,99624.52
2018-08-10T02:47:47.607Z,99635.75
2018-08-10T02:50:16.315Z,99632.52
2018-08-10T02:52:45.143Z,99640.34
2018-08-10T02:55:14.444Z,99643.75
2018-08-10T02:57:43.550Z,99644.11
2018-08-10T03:00:15.440Z,99643.77
2018-08-10T03:02:44.491Z,99649.95
2018-08-10T03:05:13.108Z,99645.81
2018-08-10T03:07:42.360Z,99654.56
2018-08-10T03:10:12.097Z,99655.52
2018-08-10T03:12:40.568Z,99659.78
2018-08-10T03:15:12.283Z,99660.34
2018-08-10T03:17:40.963Z,99653.59
2018-08-10T03:20:09.921Z,99660.58
2018-08-10T03:22:38.460Z,99662.14
2018-08-10T03:25:08.001Z,99663.44
2018-08-10T03:27:36.569Z,99663.14
2018-08-10T03:30:06.674Z,99667.53
2018-08-10T03:32:35.371Z,99667.28
2018-08-10T03:35:04.121Z,99670.36
2018-08-10T03:37:32.639Z,99671.59
2018-08-10T03:40:01.574Z,99668.95
2018-08-10T03:42:32.333Z,99675.72
2018-08-10T03:45:01.452Z,99669.84
2018-08-10T03:47:29.887Z,99677.69
2018-08-10T03:49:58.831Z,99688.02
2018-08-10T03:52:27.317Z,99682.92
2018-08-10T03:54:56.481Z,99687.84
2018-08-10T03:57:25.051Z,99697.02
2018-08-10T03:59:54.405Z,99688.81
2018-08-10T04:02:22.934Z,99654.62
2018-08-10T04:04:51.631Z,99705.02
2018-08-10T04:07:20.240Z,99699.36
2018-08-10T04:09:50.288Z,99698.56
2018-08-10T04:12:18.913Z,99698.56
2018-08-10T04:14:47.982Z,99700.23
2018-08-10T04:17:22.477Z,99700.23
2018-08-10T04:19:52.434Z,99710.22
2018-08-10T04:22:21.185Z,99702.04
2018-08-10T04:24:50.754Z,99713.97
2018-08-10T04:27:20.142Z,99710.69
2018-08-10T04:29:49.707Z,99718.37
2018-08-10T04:32:18.284Z,99718.84
2018-08-10T04:34:46.825Z,99721.78
2018-08-10T04:37:15.510Z,99723.72
2018-08-10T04:39:44.049Z,99715.22
2018-08-10T04:42:12.726Z,99712.25
2018-08-10T04:44:41.648Z,99707.15
2018-08-10T04:47:10.763Z,99706.43
2018-08-10T04:49:39.328Z,99710.64
2018-08-10T04:52:07.874Z,99722.16
2018-08-10T04:54:36.546Z,99720.62
2018-08-10T04:57:05.849Z,99725.08
2018-08-10T04:59:34.406Z,99730.01
2018-08-10T05:02:02.845Z,99738.81
2018-08-10T05:04:31.755Z,99744.69
2018-08-10T05:07:00.239Z,99739.16
2018-08-10T05:09:28.734Z,99748.15
2018-08-10T05:11:57.282Z,99744.38
2018-08-10T05:14:25.891Z,99747.64
2018-08-10T05:16:54.439Z,99750.19
2018-08-10T05:19:22.906Z,99746.34
2018-08-10T05:21:51.629Z,99753.77
2018-08-10T05:24:20.876Z,99755.50
2018-08-10T05:26:49.449Z,99769.97
2018-08-10T05:29:18.729Z,99773.08
2018-08-10T05:31:48.088Z,99777.68
2018-08-10T05:34:17.305Z,99778.50
2018-08-10T05:36:45.891Z,99781.09
2018-08-10T05:39:14.673Z,99777.98
2018-08-10T05:41:43.649Z,99780.14
2018-08-10T05:44:12.199Z,99785.41
2018-08-10T05:46:40.776Z,99780.84
2018-08-10T05:49:09.767Z,99774.28
2018-08-10T05:51:38.378Z,99785.63
2018-08-10T05:54:07.510Z,99782.88
2018-08-10T05:56:36.142Z,99787.95
2018-08-10T05:59:04.657Z,99788.68
2018-08-10T06:01:34.038Z,99781.86
2018-08-10T06:04:02.724Z,99783.04
2018-08-10T06:06:31.925Z,99790.00
2018-08-10T06:09:02.474Z,99785.53
2018-08-10T06:11:31.404Z,99791.07
2018-08-10T06:14:00.856Z,99795.74
2018-08-10T06:16:30.783Z,99800.28
2018-08-10T06:18:59.964Z,99792.56
2018-08-10T06:21:29.820Z,99801.14
2018-08-10T06:23:59.619Z,99802.39
2018-08-10T06:26:29.515Z,99812.68
2018-08-10T06:28:59.337Z,99816.86
2018-08-10T06:31:28.578Z,99810.23
2018-08-10T06:33:58.930Z,99809.75
2018-08-10T06:36:28.789Z,99807.77
2018-08-10T06:38:58.192Z,99808.64
2018-08-10T06:41:27.638Z,99808.30
2018-08-10T06:43:57.042Z,99803.31
2018-08-10T06:46:26.646Z,99805.22
2018-08-10T06:48:56.124Z,99805.38
2018-08-10T06:51:25.687Z,99799.89
2018-08-10T06:53:54.802Z,99809.78
2018-08-10T06:56:25.119Z,99814.39
2018-08-10T07:01:40.133Z,99815.48
2018-08-10T07:04:09.958Z,99807.06
2018-08-10T07:06:39.980Z,99811.41
2018-08-10T07:09:11.849Z,99816.20
2018-08-10T07:11:40.790Z,99814.66
2018-08-10T07:14:10.096Z,99816.71
2018-08-10T07:16:38.968Z,99823.92
2018-08-10T07:19:08.573Z,99815.27
2018-08-10T07:21:38.840Z,99819.37
2018-08-10T07:24:08.075Z,99823.50
2018-08-10T07:26:37.253Z,99814.84
2018-08-10T07:29:06.890Z,99817.48
2018-08-10T07:31:35.542Z,99822.94
2018-08-10T07:34:05.068Z,99818.24
2018-08-10T07:36:33.938Z,99815.23
2018-08-10T07:39:03.088Z,99830.23
2018-08-10T07:41:31.997Z,99824.76
2018-08-10T07:44:03.238Z,99829.27
2018-08-10T07:46:34.236Z,99827.70
2018-08-10T07:49:04.259Z,99825.22
2018-08-10T07:51:33.789Z,99836.11
2018-08-10T07:54:02.559Z,99832.09
2018-08-10T07:56:32.049Z,99839.16
2018-08-10T07:59:01.335Z,99830.33
2018-08-10T08:01:31.988Z,99839.06
2018-08-10T08:04:01.607Z,99826.22
2018-08-10T08:06:31.074Z,99823.92
2018-08-10T08:09:00.072Z,99833.52
2018-08-10T08:11:30.081Z,99828.22
2018-08-10T08:13:58.859Z,99834.72
2018-08-10T08:16:28.114Z,99842.83
2018-08-10T08:18:57.563Z,99839.35
2018-08-10T08:21:26.960Z,99841.48
2018-08-10T08:23:55.873Z,99844.98
2018-08-10T08:26:24.461Z,99840.52
2018-08-10T08:28:52.992Z,99833.90
2018-08-10T08:31:21.647Z,99840.16
2018-08-10T08:34:02.308Z,99834.52
2018-08-10T08:36:30.979Z,99838.27
2018-08-10T08:39:26.062Z,99840.63
2018-08-10T08:41:54.539Z,99836.82
2018-08-10T08:44:35.724Z,99838.42
2018-08-10T08:47:05.492Z,99848.52
2018-08-10T08:49:34.847Z,99840.30
2018-08-10T08:52:03.548Z,99842.21
2018-08-10T08:55:14.725Z,99851.53
2018-08-10T08:57:43.251Z,99849.09
2018-08-10T09:00:14.760Z,99839.89
2018-08-10T09:02:44.316Z,99840.08
2018-08-10T09:05:12.779Z,99836.28
2018-08-10T09:07:41.942Z,99831.56
2018-08-10T09:10:12.508Z,99839.17
2018-08-10T09:12:41.882Z,99838.91
2018-08-10T09:15:13.435Z,99836.86
2018-08-10T09:17:42.791Z,99833.25
2018-08-10T09:20:12.222Z,99831.56
2018-08-10T09:22:40.760Z,99822.38
2018-08-10T09:25:12.897Z,99794.63
2018-08-10T09:27:41.467Z,99818.59
2018-08-10T09:30:12.231Z,99818.63
2018-08-10T09:32:42.257Z,99833.11
2018-08-10T09:35:12.499Z,99828.95
2018-08-10T09:38:45.189Z,99829.28
2018-08-10T09:41:13.670Z,99830.83
2018-08-10T09:43:42.352Z,99827.08
2018-08-10T09:46:11.600Z,99832.15
2018-08-10T09:48:40.753Z,99829.09
2018-08-10T09:51:11.313Z,99832.61
2018-08-10T09:53:40.032Z,99835.44
2018-08-10T09:56:09.435Z,99842.78
2018-08-10T09:58:38.100Z,99838.61
2018-08-10T10:01:10.857Z,99841.91
2018-08-10T10:03:39.614Z,99845.26
2018-08-10T10:06:08.366Z,99848.05
2018-08-10T10:08:37.179Z,99850.05
2018-08-10T10:11:06.392Z,99836.22
2018-08-10T10:13:35.005Z,99830.88
2018-08-10T10:16:03.502Z,99828.86
2018-08-10T10:18:32.019Z,99835.88
2018-08-10T10:21:01.682Z,99824.17
2018-08-10T10:23:30.266Z,99821.23
2018-08-10T10:25:59.814Z,99812.77
2018-08-10T10:28:29.410Z,99809.89
2018-08-10T10:30:58.265Z,99813.56
2018-08-10T10:33:26.735Z,99801.27
2018-08-10T10:35:56.127Z,99809.00
2018-08-10T10:38:24.667Z,99803.78
2018-08-10T10:40:54.145Z,99800.09
2018-08-10T10:43:22.650Z,99804.32
2018-08-10T10:45:51.442Z,99807.92
2018-08-10T10:48:20.314Z,99810.50
2018-08-10T10:50:50.033Z,99796.83
2018-08-10T10:53:19.255Z,99792.34
2018-08-10T10:55:50.145Z,99785.61
2018-08-10T10:58:18.732Z,99784.09
2018-08-10T11:00:48.357Z,99786.42
2018-08-10T11:03:17.513Z,99778.97
2018-08-10T11:05:46.461Z,99789.20
2018-08-10T11:08:16.010Z,99782.74
2018-08-10T11:10:46.982Z,99786.77
2018-08-10T11:13:15.721Z,99792.33
2018-08-10T11:15:44.298Z,99793.08
2018-08-10T11:18:12.985Z,99794.36
2018-08-10T11:20:41.883Z,99787.33
2018-08-10T11:23:10.539Z,99783.97
2018-08-10T11:25:39.221Z,99780.20
2018-08-10T11:28:07.878Z,99769.80
2018-08-10T11:30:38.045Z,99772.13
2018-08-10T11:33:06.898Z,99769.83
2018-08-10T11:35:36.565Z,99764.16
2018-08-10T11:38:05.678Z,99767.51
2018-08-10T11:40:34.615Z,99761.23
2018-08-10T11:43:04.292Z,99766.91
2018-08-10T11:45:33.237Z,99760.88
2018-08-10T11:48:02.115Z,99760.25
2018-08-10T11:50:31.433Z,99757.77
2018-08-10T11:53:01.559Z,99761.84
2018-08-10T11:55:30.737Z,99746.84
2018-08-10T11:58:00.740Z,99746.16
2018-08-10T12:00:29.352Z,99737.90
2018-08-10T12:02:57.909Z,99744.97
2018-08-10T12:05:26.438Z,99752.80
2018-08-10T12:07:55.207Z,99742.47
2018-08-10T12:10:24.374Z,99738.74
2018-08-10T12:12:52.931Z,99741.49
2018-08-10T12:15:21.597Z,99732.84
2018-08-10T12:17:51.087Z,99737.68
2018-08-10T12:20:19.765Z,99738.57
2018-08-10T12:22:48.219Z,99719.71
2018-08-10T12:25:17.881Z,99735.71
2018-08-10T12:27:46.351Z,99740.68
2018-08-10T12:30:17.815Z,99741.95
2018-08-10T12:32:46.551Z,99737.54
2018-08-10T12:35:15.664Z,99737.95
2018-08-10T12:37:44.886Z,99733.34
2018-08-10T12:40:18.457Z,99726.45
2018-08-10T12:42:47.532Z,99709.97
2018-08-10T12:45:16.444Z,99728.80
2018-08-10T12:47:45.163Z,99723.96
2018-08-10T12:50:14.230Z,99716.03
2018-08-10T12:52:43.194Z,99721.16
2018-08-10T12:55:18.525Z,99721.95
2018-08-10T12:57:47.067Z,99722.39
2018-08-10T13:00:16.699Z,99729.69
2018-08-10T13:02:46.575Z,99729.70
2018-08-10T13:05:15.809Z,99732.42
2018-08-10T13:07:44.553Z,99732.28
2018-08-10T13:10:13.892Z,99734.59
2018-08-10T13:12:42.393Z,99735.38
2018-08-10T13:15:12.789Z,99732.50
2018-08-10T13:17:42.070Z,99733.08
2018-08-10T13:20:12.645Z,99725.48
2018-08-10T13:22:42.372Z,99718.95
2018-08-10T13:25:11.291Z,99714.03
2018-08-10T13:27:40.779Z,99713.31
2018-08-10T13:30:10.997Z,99715.30
2018-08-10T13:32:40.523Z,99726.55
2018-08-10T13:35:09.037Z,99716.88
2018-08-10T13:37:37.597Z,99707.24
2018-08-10T13:40:06.096Z,99714.56
2018-08-10T13:42:34.691Z,99709.70
2018-08-10T13:45:03.329Z,99713.86
2018-08-10T13:47:31.800Z,99708.46
2018-08-10T13:50:01.265Z,99717.10
2018-08-10T13:52:29.776Z,99710.18
2018-08-10T13:54:58.568Z,99717.36
2018-08-10T13:57:27.727Z,99719.81
2018-08-10T13:59:56.514Z,99712.95
2018-08-10T14:02:25.059Z,99710.38
2018-08-10T14:04:54.592Z,99707.68
2018-08-10T14:07:23.204Z,99706.98
2018-08-10T14:09:51.631Z,99718.05
2018-08-10T14:12:20.151Z,99702.56
2018-08-10T14:14:48.816Z,99700.30
2018-08-10T14:17:17.321Z,99711.86
2018-08-10T14:19:45.767Z,99707.34
2018-08-10T14:22:14.996Z,99705.55
2018-08-10T14:24:43.679Z,99697.25
2018-08-10T14:27:12.771Z,99706.98
2018-08-10T14:29:41.276Z,99690.64
2018-08-10T14:32:10.219Z,99697.63
2018-08-10T14:34:39.352Z,99696.64
2018-08-10T14:37:07.972Z,99691.45
2018-08-10T14:39:36.465Z,99687.54
2018-08-10T14:42:04.995Z,99670.69
2018-08-10T14:44:33.433Z,99672.68
2018-08-10T14:47:02.066Z,99670.17
2018-08-10T14:49:31.039Z,99672.08
2018-08-10T14:52:00.193Z,99676.58
2018-08-10T14:54:29.426Z,99671.89
2018-08-10T14:56:57.899Z,99670.59
2018-08-10T14:59:26.404Z,99668.50
2018-08-10T15:01:55.059Z,99664.64
2018-08-10T15:04:24.227Z,99665.73
2018-08-10T15:06:52.768Z,99666.58
2018-08-10T15:09:21.254Z,99655.63
2018-08-10T15:11:49.747Z,99655.61
2018-08-10T15:14:18.199Z,99651.95
2018-08-10T15:16:46.700Z,99643.70
2018-08-10T15:19:15.401Z,99645.73
2018-08-10T15:21:43.846Z,99634.63
2018-08-10T15:24:12.288Z,99638.70
2018-08-10T15:26:41.390Z,99638.55
2018-08-10T15:29:10.296Z,99638.19
2018-08-10T15:31:38.938Z,99631.75
2018-08-10T15:34:07.484Z,99628.43
2018-08-10T15:36:36.502Z,99628.63
2018-08-10T15:39:08.004Z,99635.75
2018-08-10T15:41:36.502Z,99621.67
2018-08-10T15:44:05.236Z,99627.20
2018-08-10T15:46:33.681Z,99625.36
2018-08-10T15:49:02.209Z,99627.03
2018-08-10T15:51:30.780Z,99629.23
2018-08-10T15:53:59.268Z,99634.66
2018-08-10T15:56:27.723Z,99626.66
2018-08-10T15:58:56.192Z,99626.87
2018-08-10T16:01:24.769Z,99627.07
2018-08-10T16:03:53.319Z,99627.00
2018-08-10T16:06:21.792Z,99625.67
2018-08-10T16:08:50.358Z,99624.16
2018-08-10T16:11:19.011Z,99630.12
2018-08-10T16:13:48.881Z,99622.80
2018-08-10T16:16:17.438Z,99623.13
2018-08-10T16:18:46.232Z,99620.85
2018-08-10T16:21:14.884Z,99619.70
2018-08-10T16:23:43.455Z,99616.27
2018-08-10T16:26:12.748Z,99612.05
2018-08-10T16:28:41.329Z,99618.39
2018-08-10T16:31:09.781Z,99621.81
2018-08-10T16:33:38.240Z,99618.66
2018-08-10T16:36:06.702Z,99613.98
2018-08-10T16:38:35.219Z,99604.20
2018-08-10T16:41:03.816Z,99616.96
2018-08-10T16:43:32.451Z,99612.66
2018-08-10T16:46:00.919Z,99616.17
2018-08-10T16:48:29.428Z,99613.94
2018-08-10T16:50:58.155Z,99615.47
2018-08-10T16:53:27.411Z,99613.05
2018-08-10T16:55:56.483Z,99614.99
2018-08-10T16:58:25.227Z,99613.05
2018-08-10T17:00:54.515Z,99608.92
2018-08-10T17:03:23.240Z,99616.96
2018-08-10T17:05:52.513Z,99614.30
2018-08-10T17:08:21.098Z,99617.09
2018-08-10T17:10:49.959Z,99619.59
2018-08-10T17:13:20.276Z,99617.70
2018-08-10T17:15:49.900Z,99613.00
2018-08-10T17:18:19.079Z,99617.25
2018-08-10T17:20:47.528Z,99612.15
2018-08-10T17:23:16.552Z,99614.30
2018-08-10T17:25:45.021Z,99611.41
2018-08-10T17:28:13.594Z,99614.35
2018-08-10T17:30:42.337Z,99614.34
2018-08-10T17:33:10.867Z,99606.49
2018-08-10T17:35:39.285Z,99602.81
2018-08-10T17:38:07.884Z,99608.80
2018-08-10T17:40:36.480Z,99607.50
2018-08-10T17:43:05.368Z,99609.75
2018-08-10T17:45:33.923Z,99597.20
2018-08-10T17:48:03.019Z,99600.03
2018-08-10T17:50:31.715Z,99607.42
2018-08-10T17:53:00.576Z,99605.72
2018-08-10T17:55:30.861Z,99615.82
2018-08-10T17:58:01.517Z,99611.14
2018-08-10T18:00:30.028Z,99612.30
2018-08-10T18:02:58.477Z,99578.61
2018-08-10T18:05:26.984Z,99617.28
2018-08-10T18:07:55.525Z,99618.09
2018-08-10T18:10:24.124Z,99617.18
2018-08-10T18:12:53.531Z,99626.44
2018-08-10T18:15:23.126Z,99620.70
2018-08-10T18:17:52.283Z,99622.50
2018-08-10T18:20:23.014Z,99624.69
2018-08-10T18:22:54.131Z,99634.22
2018-08-10T18:25:23.357Z,99632.74
2018-08-10T18:27:52.326Z,99637.87
2018-08-10T18:30:23.147Z,99635.61
2018-08-10T18:32:51.686Z,99639.47
2018-08-10T18:35:20.172Z,99633.36
2018-08-10T18:37:49.331Z,99638.08
2018-08-10T18:40:18.854Z,99638.06
2018-08-10T18:42:48.543Z,99641.90
2018-08-10T18:45:19.789Z,99636.11
2018-08-10T18:47:49.038Z,99641.14
2018-08-10T18:50:18.669Z,99646.96
2018-08-10T18:52:47.538Z,99647.77
2018-08-10T18:55:21.343Z,99654.47
2018-08-10T18:57:50.292Z,99650.49
2018-08-10T19:00:22.342Z,99654.56
2018-08-10T19:02:51.068Z,99654.23
2018-08-10T19:05:20.236Z,99660.13
2018-08-10T19:07:49.329Z,99658.14
2018-08-10T19:10:21.396Z,99662.98
2018-08-10T19:12:50.217Z,99660.36
2018-08-10T19:15:20.522Z,99660.86
2018-08-10T19:17:50.999Z,99662.23
2018-08-10T19:20:20.779Z,99661.84
2018-08-10T19:22:49.866Z,99657.05
2018-08-10T19:25:18.940Z,99663.66
2018-08-10T19:27:47.416Z,99665.67
2018-08-10T19:30:24.358Z,99662.78
2018-08-10T19:32:53.133Z,99662.52
2018-08-10T19:35:22.118Z,99674.86
2018-08-10T19:37:51.685Z,99674.76
2018-08-10T19:40:21.249Z,99679.06
2018-08-10T19:42:49.760Z,99683.51
2018-08-10T19:45:18.599Z,99687.64
2018-08-10T19:47:47.796Z,99685.34
2018-08-10T19:50:17.563Z,99687.36
2018-08-10T19:52:46.148Z,99694.75
2018-08-10T19:55:15.633Z,99694.75
2018-08-10T19:57:44.160Z,99690.70
2018-08-10T20:00:15.340Z,99689.75
2018-08-10T20:02:45.603Z,99687.95
2018-08-10T20:05:14.011Z,99694.74
2018-08-10T20:07:43.347Z,99691.73
2018-08-10T20:10:13.131Z,99694.80
2018-08-10T20:12:41.740Z,99693.81
2018-08-10T20:15:13.901Z,99694.50
2018-08-10T20:17:43.767Z,99696.17
2018-08-10T20:20:15.902Z,99700.72
2018-08-10T20:22:45.506Z,99699.24
2018-08-10T20:25:14.740Z,99696.38
2018-08-10T20:27:43.222Z,99689.81
2018-08-10T20:30:14.261Z,99700.91
2018-08-10T20:32:45.165Z,99697.20
2018-08-10T20:35:15.316Z,99699.88
2018-08-10T20:37:45.843Z,99691.84
2018-08-10T20:40:18.243Z,99700.06
2018-08-10T20:42:47.399Z,99697.53
2018-08-10T20:45:17.103Z,99705.61
2018-08-10T20:47:46.968Z,99705.92
2018-08-10T20:50:20.183Z,99704.58
2018-08-10T20:52:49.485Z,99705.76
2018-08-10T20:55:18.776Z,99700.55
2018-08-10T20:57:47.837Z,99707.61
2018-08-10T21:00:17.473Z,99703.74
2018-08-10T21:02:46.634Z,99705.44
2018-08-10T21:05:17.202Z,99707.77
2018-08-10T21:07:45.957Z,99705.24
2018-08-10T21:10:17.412Z,99702.56
2018-08-10T21:12:46.599Z,99705.91
2018-08-10T21:15:16.190Z,99704.91
2018-08-10T21:17:45.490Z,99702.22
2018-08-10T21:20:15.956Z,99708.09
2018-08-10T21:22:44.478Z,99700.83
2018-08-10T21:25:14.371Z,99692.12
2018-08-10T21:27:43.432Z,99691.11
2018-08-10T21:30:18.360Z,99705.51
2018-08-10T21:32:48.143Z,99701.02
2018-08-10T21:35:17.839Z,99717.07
2018-08-10T21:37:46.356Z,99711.51
2018-08-10T21:40:15.900Z,99714.72
2018-08-10T21:42:44.547Z,99712.54
2018-08-10T21:45:13.701Z,99720.02
2018-08-10T21:47:42.158Z,99717.33
2018-08-10T21:50:14.480Z,99722.80
2018-08-10T21:52:43.701Z,99724.80
2018-08-10T21:55:13.168Z,99722.25
2018-08-10T21:57:41.891Z,99718.58
2018-08-10T22:00:41.395Z,99720.01
2018-08-10T22:03:11.723Z,99720.77
2018-08-10T22:05:40.773Z,99727.80
2018-08-10T22:08:09.259Z,99717.88
2018-08-10T22:10:37.758Z,99713.15
2018-08-10T22:13:06.652Z,99718.36
2018-08-10T22:15:40.911Z,99713.81
2018-08-10T22:18:14.784Z,99715.56
2018-08-10T22:20:43.277Z,99716.76
2018-08-10T22:23:12.471Z,99726.28
2018-08-10T22:25:40.982Z,99729.07
2018-08-10T22:28:09.499Z,99724.59
2018-08-10T22:30:38.055Z,99725.07
2018-08-10T22:33:08.110Z,99720.68
2018-08-10T22:35:36.537Z,99730.20
2018-08-10T22:38:05.067Z,99731.30
2018-08-10T22:40:35.440Z,99732.26
2018-08-10T22:43:03.981Z,99737.07
2018-08-10T22:45:32.767Z,99725.80
2018-08-10T22:48:01.339Z,99729.08
2018-08-10T22:50:30.587Z,99724.35
2018-08-10T22:52:59.170Z,99729.83
2018-08-10T22:55:27.706Z,99722.27
2018-08-10T22:57:57.103Z,99732.88
2018-08-10T23:00:26.691Z,99734.34
2018-08-10T23:02:55.214Z,99727.88
2018-08-10T23:05:24.496Z,99722.52
2018-08-10T23:07:53.787Z,99724.98
2018-08-10T23:10:22.797Z,99716.57
2018-08-10T23:12:51.749Z,99724.60
2018-08-10T23:15:20.536Z,99724.20
2018-08-10T23:17:49.033Z,99716.55
2018-08-10T23:20:17.596Z,99714.42
2018-08-10T23:22:46.741Z,99715.67
2018-08-10T23:25:15.361Z,99718.59
2018-08-10T23:27:46.156Z,99715.53
2018-08-10T23:30:17.046Z,99707.73
2018-08-10T23:32:47.295Z,99707.44
2018-08-10T23:35:15.786Z,99708.86
2018-08-10T23:37:44.329Z,99703.14
2018-08-10T23:40:15.542Z,99699.86
2018-08-10T23:42:45.321Z,99702.53
2018-08-10T23:45:15.074Z,99706.95
2018-08-10T23:47:45.453Z,99697.03
2018-08-10T23:50:15.649Z,99699.11
2018-08-10T23:52:45.309Z,99706.61
2018-08-10T23:55:15.894Z,99699.34
2018-08-10T23:57:45.831Z,99702.77
